Aviation Digital Data Service (ADDS)

Output produced by METARs form (0649 UTC 28 April 2015)
found at http://aviationweather.gov/adds/metars/
 
KMPV 280528Z 2806/2906 36010G18KT P6SM OVC025 
     FM280900 33006KT P6SM OVC040 
     FM281100 34010G18KT P6SM OVC045 
     FM282300 32006KT P6SM BKN050